Little Rock Air Force Base
KLRF : rendu visible

Aérodrome :











RETROUVEZ-NOUS SUR...

 
LOGIN :

S'inscrire | Disclaimer

   EN    FR    IT 

 









Légende :    VFR   VFR Marginal   IFR   IFR Intensif   IFR Très Intensif
Visi : 
Plafond : 
>= 8 km
>= 3000ft
5 à 8 km
1000 à 3000 ft
1500m à 5 km
500 à 1000 ft
800 à 1500m
200 à 500 ft
< 800m
< 200 ft
Symboles :   Orages  Brouillard  Fortes neiges  Fortes précipitations  Vent > 20 kt






- Altitude de l'aérodrome : 311 ft


KLRF - Little Rock Air Force Base

DERNIER METAR :
  • 021557Z AUTO 17008KT 10SM CLR 19/08 A3008 RMK AO2 SLP188 T01850076 $

METARs EXPIRÉS :
  • 021456Z AUTO 15007KT 10SM BKN130 OVC150 16/08 A3008 RMK AO2 SLP188 T01590076 50001 $
  • 021356Z AUTO 13007KT 10SM OVC140 14/08 A3008 RMK AO2 SLP188 T01410081 $

TAF AMD TAF KLRF
Valide du 02 à 16h jusqu'au 03 à 21h UTC


021655Z 0216/0321 16012KT 9999 FEW150 QNH2998INS
BECMG 0222/0223 16006KT 9999 SCT100 QNH2995INS
TEMPO 0301/0308 VRB06KT 8000 SHRA BKN050 OVC100
BECMG 0311/0312 12006KT 9999 SCT030 OVC100 QNH2994INS TX22/0221Z TN11/0312Z



MET'MAP, la Météo Aéronautique d'un coup d'oeil ! - Copyright ORBIFLY Décembre 2007 - Disclaimer

ORBIFLY MET'MAP TEAM :

Programmation & Développement : Alexandra Zaïnal
Sur une idée originale de : Baudouin d'Aumeries
Assistance à la programmation : Marc-Olivier Méhu
Soutien technique & logistique : Manuel Goepfert

Contact : metmap@orbifly.com




SOURCES & CREDITS :

   NOAA       Earth
Advisory